sensor_id;sensor_type;location;lat;lon;timestamp;pressure;altitude;pressure_sealevel;temperature;humidity
8569;BME280;4322;51.104;-4.162;2022-07-01T00:01:42;102077.69;;;14.39;100.00
8569;BME280;4322;51.104;-4.162;2022-07-01T00:04:12;102096.06;;;14.39;100.00
8569;BME280;4322;51.104;-4.162;2022-07-01T00:06:40;102101.25;;;14.40;100.00
8569;BME280;4322;51.104;-4.162;2022-07-01T00:09:08;102112.38;;;14.45;100.00
8569;BME280;4322;51.104;-4.162;2022-07-01T00:11:37;102112.94;;;14.52;100.00
8569;BME280;4322;51.104;-4.162;2022-07-01T00:14:07;102124.91;;;14.59;100.00
8569;BME280;4322;51.104;-4.162;2022-07-01T00:16:35;102132.78;;;14.59;100.00
8569;BME280;4322;51.104;-4.162;2022-07-01T00:19:04;102121.75;;;14.51;100.00
8569;BME280;4322;51.104;-4.162;2022-07-01T00:21:33;102120.31;;;14.44;100.00
8569;BME280;4322;51.104;-4.162;2022-07-01T00:24:02;102125.69;;;14.41;100.00
8569;BME280;4322;51.104;-4.162;2022-07-01T00:26:30;102136.34;;;14.38;100.00
8569;BME280;4322;51.104;-4.162;2022-07-01T00:28:58;102147.66;;;14.38;100.00
8569;BME280;4322;51.104;-4.162;2022-07-01T00:31:26;102151.91;;;14.41;100.00
8569;BME280;4322;51.104;-4.162;2022-07-01T00:33:55;102151.91;;;14.41;100.00
8569;BME280;4322;51.104;-4.162;2022-07-01T00:36:23;102159.00;;;14.39;100.00
8569;BME280;4322;51.104;-4.162;2022-07-01T00:38:58;102168.63;;;14.38;100.00
8569;BME280;4322;51.104;-4.162;2022-07-01T00:41:26;102171.13;;;14.41;100.00
8569;BME280;4322;51.104;-4.162;2022-07-01T00:43:55;102175.34;;;14.45;100.00
8569;BME280;4322;51.104;-4.162;2022-07-01T00:46:24;102174.34;;;14.48;100.00
8569;BME280;4322;51.104;-4.162;2022-07-01T00:48:54;102175.06;;;14.51;100.00
8569;BME280;4322;51.104;-4.162;2022-07-01T00:51:23;102188.13;;;14.53;100.00
8569;BME280;4322;51.104;-4.162;2022-07-01T00:53:52;102193.38;;;14.53;100.00
8569;BME280;4322;51.104;-4.162;2022-07-01T00:56:21;102197.72;;;14.54;100.00
8569;BME280;4322;51.104;-4.162;2022-07-01T00:58:50;102192.47;;;14.54;100.00
8569;BME280;4322;51.104;-4.162;2022-07-01T01:01:18;102194.09;;;14.56;100.00
8569;BME280;4322;51.104;-4.162;2022-07-01T01:03:47;102196.78;;;14.55;100.00
8569;BME280;4322;51.104;-4.162;2022-07-01T01:06:16;102195.88;;;14.56;100.00
8569;BME280;4322;51.104;-4.162;2022-07-01T01:08:45;102195.75;;;14.59;100.00
8569;BME280;4322;51.104;-4.162;2022-07-01T01:11:15;102197.44;;;14.60;100.00
8569;BME280;4322;51.104;-4.162;2022-07-01T01:13:45;102193.97;;;14.59;100.00
8569;BME280;4322;51.104;-4.162;2022-07-01T01:16:18;102192.25;;;14.58;100.00
8569;BME280;4322;51.104;-4.162;2022-07-01T01:18:46;102199.16;;;14.61;100.00
8569;BME280;4322;51.104;-4.162;2022-07-01T01:21:16;102196.53;;;14.61;100.00
8569;BME280;4322;51.104;-4.162;2022-07-01T01:23:45;102198.28;;;14.60;100.00
8569;BME280;4322;51.104;-4.162;2022-07-01T01:26:17;102190.38;;;14.62;100.00
8569;BME280;4322;51.104;-4.162;2022-07-01T01:28:46;102184.19;;;14.63;100.00
8569;BME280;4322;51.104;-4.162;2022-07-01T01:31:15;102178.06;;;14.62;100.00
8569;BME280;4322;51.104;-4.162;2022-07-01T01:33:44;102174.47;;;14.65;100.00
8569;BME280;4322;51.104;-4.162;2022-07-01T01:36:12;102175.19;;;14.68;100.00
8569;BME280;4322;51.104;-4.162;2022-07-01T01:38:42;102169.03;;;14.69;100.00
8569;BME280;4322;51.104;-4.162;2022-07-01T01:41:10;102175.13;;;14.70;100.00
8569;BME280;4322;51.104;-4.162;2022-07-01T01:43:38;102173.63;;;14.64;100.00
8569;BME280;4322;51.104;-4.162;2022-07-01T01:46:06;102166.59;;;14.65;100.00
8569;BME280;4322;51.104;-4.162;2022-07-01T01:48:34;102174.47;;;14.65;100.00
8569;BME280;4322;51.104;-4.162;2022-07-01T01:51:02;102170.19;;;14.62;100.00
8569;BME280;4322;51.104;-4.162;2022-07-01T01:53:30;102163.31;;;14.60;100.00
8569;BME280;4322;51.104;-4.162;2022-07-01T01:56:00;102166.88;;;14.59;100.00
8569;BME280;4322;51.104;-4.162;2022-07-01T01:58:28;102161.63;;;14.59;100.00
8569;BME280;4322;51.104;-4.162;2022-07-01T02:00:56;102166.06;;;14.57;100.00
8569;BME280;4322;51.104;-4.162;2022-07-01T02:03:25;102163.66;;;14.52;100.00
8569;BME280;4322;51.104;-4.162;2022-07-01T02:05:53;102158.66;;;14.46;100.00
8569;BME280;4322;51.104;-4.162;2022-07-01T02:08:22;102161.28;;;14.46;100.00
8569;BME280;4322;51.104;-4.162;2022-07-01T02:10:50;102157.88;;;14.44;100.00
8569;BME280;4322;51.104;-4.162;2022-07-01T02:13:21;102153.63;;;14.42;100.00
8569;BME280;4322;51.104;-4.162;2022-07-01T02:15:50;102154.53;;;14.41;100.00
8569;BME280;4322;51.104;-4.162;2022-07-01T02:18:18;102151.00;;;14.42;100.00
8569;BME280;4322;51.104;-4.162;2022-07-01T02:20:46;102148.38;;;14.42;100.00
8569;BME280;4322;51.104;-4.162;2022-07-01T02:23:15;102154.41;;;14.44;100.00
8569;BME280;4322;51.104;-4.162;2022-07-01T02:25:43;102148.31;;;14.43;100.00
8569;BME280;4322;51.104;-4.162;2022-07-01T02:28:12;102152.66;;;14.44;100.00
8569;BME280;4322;51.104;-4.162;2022-07-01T02:30:42;102160.50;;;14.44;100.00
8569;BME280;4322;51.104;-4.162;2022-07-01T02:33:10;102157.97;;;14.43;100.00
8569;BME280;4322;51.104;-4.162;2022-07-01T02:35:40;102164.84;;;14.45;100.00
8569;BME280;4322;51.104;-4.162;2022-07-01T02:38:14;102163.88;;;14.48;100.00
8569;BME280;4322;51.104;-4.162;2022-07-01T02:40:43;102166.41;;;14.49;100.00
8569;BME280;4322;51.104;-4.162;2022-07-01T02:43:11;102171.59;;;14.51;100.00
8569;BME280;4322;51.104;-4.162;2022-07-01T02:45:39;102164.56;;;14.51;100.00
8569;BME280;4322;51.104;-4.162;2022-07-01T02:48:09;102161.03;;;14.52;100.00
8569;BME280;4322;51.104;-4.162;2022-07-01T02:50:37;102154.94;;;14.52;100.00
8569;BME280;4322;51.104;-4.162;2022-07-01T02:53:05;102150.50;;;14.54;100.00
8569;BME280;4322;51.104;-4.162;2022-07-01T02:55:34;102155.78;;;14.52;100.00
8569;BME280;4322;51.104;-4.162;2022-07-01T02:58:02;102149.69;;;14.52;100.00
8569;BME280;4322;51.104;-4.162;2022-07-01T03:00:31;102152.25;;;14.53;100.00
8569;BME280;4322;51.104;-4.162;2022-07-01T03:02:59;102137.50;;;14.51;100.00
8569;BME280;4322;51.104;-4.162;2022-07-01T03:05:28;102145.38;;;14.51;100.00
8569;BME280;4322;51.104;-4.162;2022-07-01T03:07:56;102140.25;;;14.48;100.00
8569;BME280;4322;51.104;-4.162;2022-07-01T03:10:24;102134.22;;;14.46;100.00
8569;BME280;4322;51.104;-4.162;2022-07-01T03:12:53;102139.53;;;14.44;100.00
8569;BME280;4322;51.104;-4.162;2022-07-01T03:15:21;102137.81;;;14.43;100.00
8569;BME280;4322;51.104;-4.162;2022-07-01T03:17:49;102139.66;;;14.41;100.00
8569;BME280;4322;51.104;-4.162;2022-07-01T03:20:17;102140.59;;;14.40;100.00
8569;BME280;4322;51.104;-4.162;2022-07-01T03:22:47;102143.13;;;14.42;100.00
8569;BME280;4322;51.104;-4.162;2022-07-01T03:25:16;102139.59;;;14.43;100.00
8569;BME280;4322;51.104;-4.162;2022-07-01T03:27:46;102143.25;;;14.39;100.00
8569;BME280;4322;51.104;-4.162;2022-07-01T03:30:15;102144.84;;;14.43;100.00
8569;BME280;4322;51.104;-4.162;2022-07-01T03:32:45;102143.00;;;14.45;100.00
8569;BME280;4322;51.104;-4.162;2022-07-01T03:35:13;102143.13;;;14.42;100.00
8569;BME280;4322;51.104;-4.162;2022-07-01T03:37:59;102141.41;;;14.41;100.00
8569;BME280;4322;51.104;-4.162;2022-07-01T03:40:27;102140.59;;;14.40;100.00
8569;BME280;4322;51.104;-4.162;2022-07-01T03:42:56;102144.97;;;14.40;100.00
8569;BME280;4322;51.104;-4.162;2022-07-01T03:45:24;102140.72;;;14.37;100.00
8569;BME280;4322;51.104;-4.162;2022-07-01T03:47:52;102139.72;;;14.40;100.00
8569;BME280;4322;51.104;-4.162;2022-07-01T03:50:22;102133.56;;;14.41;100.00
8569;BME280;4322;51.104;-4.162;2022-07-01T03:52:51;102133.50;;;14.42;100.00
8569;BME280;4322;51.104;-4.162;2022-07-01T03:55:42;102129.25;;;14.40;100.00
8569;BME280;4322;51.104;-4.162;2022-07-01T03:58:09;102135.47;;;14.37;100.00
8569;BME280;4322;51.104;-4.162;2022-07-01T04:00:38;102127.75;;;14.34;100.00
8569;BME280;4322;51.104;-4.162;2022-07-01T04:03:06;102130.28;;;14.36;100.00
8569;BME280;4322;51.104;-4.162;2022-07-01T04:05:36;102137.28;;;14.35;100.00
8569;BME280;4322;51.104;-4.162;2022-07-01T04:08:06;102137.28;;;14.35;100.00
8569;BME280;4322;51.104;-4.162;2022-07-01T04:10:39;102139.09;;;14.35;100.00
8569;BME280;4322;51.104;-4.162;2022-07-01T04:13:09;102140.00;;;14.34;100.00
8569;BME280;4322;51.104;-4.162;2022-07-01T04:15:57;102140.00;;;14.34;100.00
8569;BME280;4322;51.104;-4.162;2022-07-01T04:18:27;102140.09;;;14.30;100.00
8569;BME280;4322;51.104;-4.162;2022-07-01T04:20:55;102135.09;;;14.24;100.00
8569;BME280;4322;51.104;-4.162;2022-07-01T04:23:41;102132.59;;;14.21;100.00
8569;BME280;4322;51.104;-4.162;2022-07-01T04:26:09;102129.19;;;14.19;100.00
8569;BME280;4322;51.104;-4.162;2022-07-01T04:28:59;102138.78;;;14.20;100.00
8569;BME280;4322;51.104;-4.162;2022-07-01T04:31:27;102144.06;;;14.19;100.00
8569;BME280;4322;51.104;-4.162;2022-07-01T04:33:56;102145.72;;;14.21;100.00
8569;BME280;4322;51.104;-4.162;2022-07-01T04:36:24;102144.75;;;14.24;100.00
8569;BME280;4322;51.104;-4.162;2022-07-01T04:38:53;102138.56;;;14.25;100.00
8569;BME280;4322;51.104;-4.162;2022-07-01T04:41:21;102151.56;;;14.28;100.00
8569;BME280;4322;51.104;-4.162;2022-07-01T04:44:08;102152.31;;;14.32;100.00
8569;BME280;4322;51.104;-4.162;2022-07-01T04:46:36;102150.41;;;14.35;100.00
8569;BME280;4322;51.104;-4.162;2022-07-01T04:49:04;102153.88;;;14.36;100.00
8569;BME280;4322;51.104;-4.162;2022-07-01T04:51:33;102146.75;;;14.39;100.00
8569;BME280;4322;51.104;-4.162;2022-07-01T04:54:02;102151.00;;;14.42;100.00
8569;BME280;4322;51.104;-4.162;2022-07-01T04:56:30;102156.13;;;14.45;100.00
8569;BME280;4322;51.104;-4.162;2022-07-01T04:58:58;102159.47;;;14.48;100.00
8569;BME280;4322;51.104;-4.162;2022-07-01T05:01:29;102149.00;;;14.48;100.00
8569;BME280;4322;51.104;-4.162;2022-07-01T05:03:57;102149.41;;;14.58;100.00
8569;BME280;4322;51.104;-4.162;2022-07-01T05:06:26;102152.78;;;14.61;100.00
8569;BME280;4322;51.104;-4.162;2022-07-01T05:08:54;102156.25;;;14.62;100.00
8569;BME280;4322;51.104;-4.162;2022-07-01T05:11:22;102155.25;;;14.64;100.00
8569;BME280;4322;51.104;-4.162;2022-07-01T05:13:50;102150.03;;;14.64;100.00
8569;BME280;4322;51.104;-4.162;2022-07-01T05:16:19;102150.72;;;14.68;100.00
8569;BME280;4322;51.104;-4.162;2022-07-01T05:18:48;102151.66;;;14.67;100.00
8569;BME280;4322;51.104;-4.162;2022-07-01T05:21:34;102154.97;;;14.70;100.00
8569;BME280;4322;51.104;-4.162;2022-07-01T05:24:20;102152.31;;;14.72;100.00
8569;BME280;4322;51.104;-4.162;2022-07-01T05:26:48;102155.78;;;14.72;100.00
8569;BME280;4322;51.104;-4.162;2022-07-01T05:29:16;102154.94;;;14.72;100.00
8569;BME280;4322;51.104;-4.162;2022-07-01T05:31:44;102149.53;;;14.75;100.00
8569;BME280;4322;51.104;-4.162;2022-07-01T05:34:14;102153.72;;;14.79;100.00
8569;BME280;4322;51.104;-4.162;2022-07-01T05:36:42;102156.28;;;14.80;100.00
8569;BME280;4322;51.104;-4.162;2022-07-01T05:39:10;102155.03;;;14.89;100.00
8569;BME280;4322;51.104;-4.162;2022-07-01T05:41:38;102158.22;;;14.96;100.00
8569;BME280;4322;51.104;-4.162;2022-07-01T05:44:06;102150.94;;;15.02;100.00
8569;BME280;4322;51.104;-4.162;2022-07-01T05:46:34;102144.97;;;14.99;100.00
8569;BME280;4322;51.104;-4.162;2022-07-01T05:49:03;102150.06;;;15.02;100.00
8569;BME280;4322;51.104;-4.162;2022-07-01T05:51:32;102147.22;;;15.06;100.00
8569;BME280;4322;51.104;-4.162;2022-07-01T05:54:00;102141.97;;;15.06;100.00
8569;BME280;4322;51.104;-4.162;2022-07-01T05:56:28;102148.16;;;15.05;100.00
8569;BME280;4322;51.104;-4.162;2022-07-01T05:58:57;102141.78;;;15.11;100.00
8569;BME280;4322;51.104;-4.162;2022-07-01T06:01:25;102132.91;;;15.13;100.00
8569;BME280;4322;51.104;-4.162;2022-07-01T06:03:53;102129.34;;;15.14;100.00
8569;BME280;4322;51.104;-4.162;2022-07-01T06:06:21;102139.72;;;15.17;100.00
8569;BME280;4322;51.104;-4.162;2022-07-01T06:08:50;102133.59;;;15.17;100.00
8569;BME280;4322;51.104;-4.162;2022-07-01T06:11:18;102133.53;;;15.18;100.00
8569;BME280;4322;51.104;-4.162;2022-07-01T06:13:46;102138.66;;;15.21;100.00
8569;BME280;4322;51.104;-4.162;2022-07-01T06:16:14;102132.47;;;15.22;100.00
8569;BME280;4322;51.104;-4.162;2022-07-01T06:18:43;102131.56;;;15.23;100.00
8569;BME280;4322;51.104;-4.162;2022-07-01T06:21:11;102122.09;;;15.19;100.00
8569;BME280;4322;51.104;-4.162;2022-07-01T06:23:39;102123.94;;;15.17;100.00
8569;BME280;4322;51.104;-4.162;2022-07-01T06:26:08;102134.31;;;15.20;100.00
8569;BME280;4322;51.104;-4.162;2022-07-01T06:28:36;102121.59;;;15.11;100.00
8569;BME280;4322;51.104;-4.162;2022-07-01T06:31:04;102118.34;;;15.06;100.00
8569;BME280;4322;51.104;-4.162;2022-07-01T06:33:33;102115.84;;;15.03;100.00
8569;BME280;4322;51.104;-4.162;2022-07-01T06:36:01;102117.84;;;14.98;100.00
8569;BME280;4322;51.104;-4.162;2022-07-01T06:38:29;102116.44;;;14.91;100.00
8569;BME280;4322;51.104;-4.162;2022-07-01T06:40:57;102116.56;;;14.88;100.00
8569;BME280;4322;51.104;-4.162;2022-07-01T06:43:47;102118.13;;;14.92;100.00
8569;BME280;4322;51.104;-4.162;2022-07-01T06:46:15;102130.97;;;14.98;100.00
8569;BME280;4322;51.104;-4.162;2022-07-01T06:48:43;102127.16;;;15.05;100.00
8569;BME280;4322;51.104;-4.162;2022-07-01T06:51:11;102133.81;;;15.12;100.00
8569;BME280;4322;51.104;-4.162;2022-07-01T06:53:39;102133.28;;;15.24;100.00
8569;BME280;4322;51.104;-4.162;2022-07-01T06:56:08;102132.03;;;15.31;100.00
8569;BME280;4322;51.104;-4.162;2022-07-01T06:58:36;102133.63;;;15.35;100.00
8569;BME280;4322;51.104;-4.162;2022-07-01T07:01:06;102147.66;;;15.34;100.00
8569;BME280;4322;51.104;-4.162;2022-07-01T07:03:34;102144.28;;;15.32;100.00
8569;BME280;4322;51.104;-4.162;2022-07-01T07:06:02;102147.53;;;15.37;100.00
8569;BME280;4322;51.104;-4.162;2022-07-01T07:08:32;102162.81;;;15.48;100.00
8569;BME280;4322;51.104;-4.162;2022-07-01T07:11:00;102160.59;;;15.58;100.00
8569;BME280;4322;51.104;-4.162;2022-07-01T07:13:29;102155.41;;;15.56;100.00
8569;BME280;4322;51.104;-4.162;2022-07-01T07:15:58;102153.34;;;15.63;100.00
8569;BME280;4322;51.104;-4.162;2022-07-01T07:18:28;102153.63;;;15.75;100.00
8569;BME280;4322;51.104;-4.162;2022-07-01T07:20:56;102152.38;;;15.82;100.00
8569;BME280;4322;51.104;-4.162;2022-07-01T07:23:26;102141.84;;;15.82;100.00
8569;BME280;4322;51.104;-4.162;2022-07-01T07:25:54;102129.09;;;15.75;100.00
8569;BME280;4322;51.104;-4.162;2022-07-01T07:28:23;102130.38;;;15.66;100.00
8569;BME280;4322;51.104;-4.162;2022-07-01T07:30:51;102119.41;;;15.58;100.00
8569;BME280;4322;51.104;-4.162;2022-07-01T07:33:19;102110.88;;;15.53;100.00
8569;BME280;4322;51.104;-4.162;2022-07-01T07:35:49;102108.16;;;15.55;100.00
8569;BME280;4322;51.104;-4.162;2022-07-01T07:38:17;102115.38;;;15.68;100.00
8569;BME280;4322;51.104;-4.162;2022-07-01T07:40:45;102117.53;;;15.79;100.00
8569;BME280;4322;51.104;-4.162;2022-07-01T07:43:13;102122.78;;;15.96;100.00
8569;BME280;4322;51.104;-4.162;2022-07-01T07:45:42;102119.53;;;16.08;100.00
8569;BME280;4322;51.104;-4.162;2022-07-01T07:48:10;102120.78;;;16.18;100.00
8569;BME280;4322;51.104;-4.162;2022-07-01T07:50:38;102119.22;;;16.31;100.00
8569;BME280;4322;51.104;-4.162;2022-07-01T07:53:08;102123.09;;;16.41;100.00
8569;BME280;4322;51.104;-4.162;2022-07-01T07:55:38;102117.63;;;16.44;100.00
8569;BME280;4322;51.104;-4.162;2022-07-01T07:58:07;102128.50;;;16.55;100.00
8569;BME280;4322;51.104;-4.162;2022-07-01T08:00:35;102134.22;;;16.63;100.00
8569;BME280;4322;51.104;-4.162;2022-07-01T08:03:06;102140.13;;;16.69;100.00
8569;BME280;4322;51.104;-4.162;2022-07-01T08:05:35;102123.31;;;16.71;100.00
8569;BME280;4322;51.104;-4.162;2022-07-01T08:08:04;102125.84;;;16.73;100.00
8569;BME280;4322;51.104;-4.162;2022-07-01T08:10:33;102125.41;;;16.80;100.00
8569;BME280;4322;51.104;-4.162;2022-07-01T08:13:01;102117.78;;;16.76;100.00
8569;BME280;4322;51.104;-4.162;2022-07-01T08:15:31;102112.56;;;16.74;100.00
8569;BME280;4322;51.104;-4.162;2022-07-01T08:17:59;102106.50;;;16.74;100.00
8569;BME280;4322;51.104;-4.162;2022-07-01T08:20:28;102098.22;;;16.64;100.00
8569;BME280;4322;51.104;-4.162;2022-07-01T08:22:56;102099.81;;;16.66;100.00
8569;BME280;4322;51.104;-4.162;2022-07-01T08:25:24;102107.84;;;16.81;100.00
8569;BME280;4322;51.104;-4.162;2022-07-01T08:28:02;102106.41;;;16.91;100.00
8569;BME280;4322;51.104;-4.162;2022-07-01T08:30:30;102113.22;;;16.95;100.00
8569;BME280;4322;51.104;-4.162;2022-07-01T08:32:59;102112.63;;;16.90;100.00
8569;BME280;4322;51.104;-4.162;2022-07-01T08:35:28;102105.97;;;16.83;100.00
8569;BME280;4322;51.104;-4.162;2022-07-01T08:37:56;102106.22;;;16.78;100.00
8569;BME280;4322;51.104;-4.162;2022-07-01T08:40:25;102096.72;;;16.76;100.00
8569;BME280;4322;51.104;-4.162;2022-07-01T08:42:57;102101.81;;;16.79;100.00
8569;BME280;4322;51.104;-4.162;2022-07-01T08:45:28;102103.91;;;16.72;100.00
8569;BME280;4322;51.104;-4.162;2022-07-01T08:47:58;102111.31;;;16.65;100.00
8569;BME280;4322;51.104;-4.162;2022-07-01T08:50:29;102111.88;;;16.55;100.00
8569;BME280;4322;51.104;-4.162;2022-07-01T08:52:57;102104.56;;;16.43;100.00
8569;BME280;4322;51.104;-4.162;2022-07-01T08:55:25;102110.44;;;16.48;100.00
8569;BME280;4322;51.104;-4.162;2022-07-01T08:57:54;102110.44;;;16.48;100.00
8569;BME280;4322;51.104;-4.162;2022-07-01T09:00:28;102120.81;;;16.51;100.00
8569;BME280;4322;51.104;-4.162;2022-07-01T09:03:00;102119.22;;;16.65;100.00
8569;BME280;4322;51.104;-4.162;2022-07-01T09:05:30;102137.25;;;16.89;100.00
8569;BME280;4322;51.104;-4.162;2022-07-01T09:08:00;102138.97;;;16.90;100.00
8569;BME280;4322;51.104;-4.162;2022-07-01T09:10:29;102140.16;;;16.84;100.00
8569;BME280;4322;51.104;-4.162;2022-07-01T09:13:04;102137.78;;;16.62;100.00
8569;BME280;4322;51.104;-4.162;2022-07-01T09:15:35;102148.31;;;16.45;100.00
8569;BME280;4322;51.104;-4.162;2022-07-01T09:18:06;102149.09;;;16.30;100.00
8569;BME280;4322;51.104;-4.162;2022-07-01T09:20:47;102149.25;;;16.10;100.00
8569;BME280;4322;51.104;-4.162;2022-07-01T09:23:18;102147.75;;;15.87;100.00
8569;BME280;4322;51.104;-4.162;2022-07-01T09:25:47;102145.97;;;15.71;100.00
8569;BME280;4322;51.104;-4.162;2022-07-01T09:28:22;102152.59;;;15.78;100.00
8569;BME280;4322;51.104;-4.162;2022-07-01T09:30:52;102160.84;;;15.89;100.00
8569;BME280;4322;51.104;-4.162;2022-07-01T09:33:24;102148.44;;;15.91;100.00
8569;BME280;4322;51.104;-4.162;2022-07-01T09:35:53;102146.59;;;15.93;100.00
8569;BME280;4322;51.104;-4.162;2022-07-01T09:38:24;102139.66;;;15.92;100.00
8569;BME280;4322;51.104;-4.162;2022-07-01T09:41:00;102142.06;;;16.14;100.00
8569;BME280;4322;51.104;-4.162;2022-07-01T09:43:29;102144.66;;;16.31;100.00
8569;BME280;4322;51.104;-4.162;2022-07-01T09:46:00;102150.94;;;16.45;100.00
8569;BME280;4322;51.104;-4.162;2022-07-01T09:48:44;102157.84;;;16.65;100.00
8569;BME280;4322;51.104;-4.162;2022-07-01T09:51:13;102162.09;;;16.67;100.00
8569;BME280;4322;51.104;-4.162;2022-07-01T09:53:43;102160.34;;;16.84;100.00
8569;BME280;4322;51.104;-4.162;2022-07-01T09:56:11;102167.25;;;16.86;100.00
8569;BME280;4322;51.104;-4.162;2022-07-01T09:58:39;102165.97;;;16.93;100.00
8569;BME280;4322;51.104;-4.162;2022-07-01T10:01:10;102181.25;;;17.19;100.00
8569;BME280;4322;51.104;-4.162;2022-07-01T10:03:39;102193.50;;;17.36;100.00
8569;BME280;4322;51.104;-4.162;2022-07-01T10:09:21;102181.72;;;17.59;100.00
8569;BME280;4322;51.104;-4.162;2022-07-01T10:14:57;102190.59;;;18.03;100.00
8569;BME280;4322;51.104;-4.162;2022-07-01T10:17:27;102201.28;;;18.16;100.00
8569;BME280;4322;51.104;-4.162;2022-07-01T10:19:56;102170.41;;;17.88;100.00
8569;BME280;4322;51.104;-4.162;2022-07-01T10:22:27;102170.81;;;17.80;100.00
8569;BME280;4322;51.104;-4.162;2022-07-01T10:25:29;102163.78;;;17.65;100.00
8569;BME280;4322;51.104;-4.162;2022-07-01T10:28:14;102157.78;;;17.77;100.00
8569;BME280;4322;51.104;-4.162;2022-07-01T10:30:52;102176.25;;;17.93;100.00
8569;BME280;4322;51.104;-4.162;2022-07-01T10:33:32;102171.63;;;17.97;100.00
8569;BME280;4322;51.104;-4.162;2022-07-01T10:36:08;102176.63;;;18.17;100.00
8569;BME280;4322;51.104;-4.162;2022-07-01T10:41:54;102170.56;;;18.44;100.00
8569;BME280;4322;51.104;-4.162;2022-07-01T10:44:59;102175.44;;;18.66;100.00
8569;BME280;4322;51.104;-4.162;2022-07-01T10:47:28;102170.19;;;18.80;100.00
8569;BME280;4322;51.104;-4.162;2022-07-01T10:50:03;102175.25;;;18.97;100.00
8569;BME280;4322;51.104;-4.162;2022-07-01T10:52:31;102162.59;;;19.02;100.00
8569;BME280;4322;51.104;-4.162;2022-07-01T10:55:01;102162.41;;;19.06;100.00
8569;BME280;4322;51.104;-4.162;2022-07-01T10:57:33;102155.63;;;18.87;100.00
8569;BME280;4322;51.104;-4.162;2022-07-01T11:00:28;102150.16;;;18.76;100.00
8569;BME280;4322;51.104;-4.162;2022-07-01T11:03:17;102157.03;;;18.51;100.00
8569;BME280;4322;51.104;-4.162;2022-07-01T11:05:48;102135.94;;;18.35;100.00
8569;BME280;4322;51.104;-4.162;2022-07-01T11:08:17;102144.00;;;18.48;100.00
8569;BME280;4322;51.104;-4.162;2022-07-01T11:10:55;102134.94;;;18.52;100.00
8569;BME280;4322;51.104;-4.162;2022-07-01T11:13:27;102125.75;;;18.43;100.00
8569;BME280;4322;51.104;-4.162;2022-07-01T11:15:55;102115.38;;;18.40;100.00
8569;BME280;4322;51.104;-4.162;2022-07-01T11:18:24;102117.91;;;18.27;100.00
8569;BME280;4322;51.104;-4.162;2022-07-01T11:21:02;102116.13;;;18.28;100.00
8569;BME280;4322;51.104;-4.162;2022-07-01T11:23:30;102117.84;;;18.29;100.00
8569;BME280;4322;51.104;-4.162;2022-07-01T11:26:05;102113.50;;;18.28;100.00
8569;BME280;4322;51.104;-4.162;2022-07-01T11:28:40;102125.66;;;18.30;100.00
8569;BME280;4322;51.104;-4.162;2022-07-01T11:31:08;102118.00;;;18.40;100.00
8569;BME280;4322;51.104;-4.162;2022-07-01T11:33:37;102118.63;;;18.45;100.00
8569;BME280;4322;51.104;-4.162;2022-07-01T11:36:06;102127.13;;;18.50;100.00
8569;BME280;4322;51.104;-4.162;2022-07-01T11:38:54;102113.53;;;18.42;100.00
8569;BME280;4322;51.104;-4.162;2022-07-01T11:41:40;102112.94;;;18.37;100.00
8569;BME280;4322;51.104;-4.162;2022-07-01T11:44:09;102121.22;;;18.31;100.00
8569;BME280;4322;51.104;-4.162;2022-07-01T11:46:37;102120.47;;;18.29;100.00
8569;BME280;4322;51.104;-4.162;2022-07-01T11:49:11;102114.06;;;18.33;100.00
8569;BME280;4322;51.104;-4.162;2022-07-01T11:51:41;102120.56;;;18.27;100.00
8569;BME280;4322;51.104;-4.162;2022-07-01T11:54:19;102133.69;;;18.29;100.00
8569;BME280;4322;51.104;-4.162;2022-07-01T11:56:48;102127.28;;;18.47;100.00
8569;BME280;4322;51.104;-4.162;2022-07-01T11:59:19;102142.78;;;18.95;100.00
8569;BME280;4322;51.104;-4.162;2022-07-01T12:01:54;102144.50;;;18.96;100.00
8569;BME280;4322;51.104;-4.162;2022-07-01T12:04:22;102134.78;;;18.83;100.00
8569;BME280;4322;51.104;-4.162;2022-07-01T12:06:51;102128.47;;;18.85;100.00
8569;BME280;4322;51.104;-4.162;2022-07-01T12:09:19;102142.06;;;18.93;100.00
8569;BME280;4322;51.104;-4.162;2022-07-01T12:11:49;102149.00;;;18.94;100.00
8569;BME280;4322;51.104;-4.162;2022-07-01T12:14:24;102139.13;;;18.84;100.00
8569;BME280;4322;51.104;-4.162;2022-07-01T12:16:54;102134.47;;;18.59;100.00
8569;BME280;4322;51.104;-4.162;2022-07-01T12:19:27;102132.13;;;18.55;100.00
8569;BME280;4322;51.104;-4.162;2022-07-01T12:21:57;102132.06;;;18.56;100.00
8569;BME280;4322;51.104;-4.162;2022-07-01T12:24:26;102119.53;;;18.44;100.00
8569;BME280;4322;51.104;-4.162;2022-07-01T12:27:01;102142.00;;;18.51;100.00
8569;BME280;4322;51.104;-4.162;2022-07-01T12:29:48;102150.34;;;18.73;100.00
8569;BME280;4322;51.104;-4.162;2022-07-01T12:32:18;102151.56;;;18.96;100.00
8569;BME280;4322;51.104;-4.162;2022-07-01T12:34:50;102142.50;;;19.00;100.00
8569;BME280;4322;51.104;-4.162;2022-07-01T12:37:27;102167.88;;;19.02;100.00
8569;BME280;4322;51.104;-4.162;2022-07-01T12:39:57;102184.22;;;18.95;100.00
8569;BME280;4322;51.104;-4.162;2022-07-01T12:42:27;102182.31;;;18.97;100.00
8569;BME280;4322;51.104;-4.162;2022-07-01T12:44:59;102168.28;;;18.96;100.00
8569;BME280;4322;51.104;-4.162;2022-07-01T12:47:29;102180.16;;;19.03;100.00
8569;BME280;4322;51.104;-4.162;2022-07-01T12:50:14;102174.50;;;19.10;100.00
8569;BME280;4322;51.104;-4.162;2022-07-01T12:52:44;102178.06;;;19.23;100.00
8569;BME280;4322;51.104;-4.162;2022-07-01T12:55:23;102163.81;;;19.25;100.00
8569;BME280;4322;51.104;-4.162;2022-07-01T12:57:53;102163.81;;;19.25;100.00
8569;BME280;4322;51.104;-4.162;2022-07-01T13:00:23;102162.41;;;19.20;100.00
8569;BME280;4322;51.104;-4.162;2022-07-01T13:02:55;102135.63;;;18.97;100.00
8569;BME280;4322;51.104;-4.162;2022-07-01T13:05:23;102141.69;;;18.99;100.00
8569;BME280;4322;51.104;-4.162;2022-07-01T13:07:51;102152.97;;;19.16;100.00
8569;BME280;4322;51.104;-4.162;2022-07-01T13:10:20;102157.31;;;19.45;100.00
8569;BME280;4322;51.104;-4.162;2022-07-01T13:12:49;102145.75;;;19.46;100.00
8569;BME280;4322;51.104;-4.162;2022-07-01T13:15:18;102163.66;;;19.69;100.00
8569;BME280;4322;51.104;-4.162;2022-07-01T13:17:48;102181.56;;;20.05;100.00